createdAt,value
2017-03-07T00:00:09.414Z,5.7
2017-03-07T00:01:11.860Z,5.6
2017-03-07T00:02:14.558Z,5.5
2017-03-07T00:03:16.858Z,5.6
2017-03-07T00:04:19.828Z,5.6
2017-03-07T00:05:22.275Z,5.7
2017-03-07T00:06:24.749Z,5.6
2017-03-07T00:07:27.516Z,5.6
2017-03-07T00:08:29.970Z,5.6
2017-03-07T00:09:32.768Z,5.7
2017-03-07T00:10:35.743Z,5.8
2017-03-07T00:11:37.689Z,5.7
2017-03-07T00:12:40.392Z,5.7
2017-03-07T00:13:43.367Z,5.7
2017-03-07T00:14:45.305Z,5.7
2017-03-07T00:15:48.622Z,5.7
2017-03-07T00:16:50.413Z,5.7
2017-03-07T00:17:53.613Z,5.5
2017-03-07T00:18:56.076Z,5.6
2017-03-07T00:19:58.354Z,5.6
2017-03-07T00:21:01.309Z,5.7
2017-03-07T00:22:03.758Z,5.7
2017-03-07T00:23:06.460Z,5.7
2017-03-07T00:24:09.453Z,5.7
2017-03-07T00:25:11.399Z,5.6
2017-03-07T00:26:13.866Z,5.6
2017-03-07T00:27:16.828Z,5.6
2017-03-07T00:28:19.531Z,5.6
2017-03-07T00:29:22.501Z,5.6
2017-03-07T00:30:24.460Z,5.6
2017-03-07T00:31:26.946Z,5.6
2017-03-07T00:32:29.395Z,5.5
2017-03-07T00:33:32.652Z,5.6
2017-03-07T00:34:35.123Z,5.6
2017-03-07T00:35:37.588Z,5.6
2017-03-07T00:36:40.058Z,5.6
2017-03-07T00:37:42.528Z,5.6
2017-03-07T00:38:45.302Z,5.6
2017-03-07T00:39:47.748Z,5.6
2017-03-07T00:40:50.202Z,5.6
2017-03-07T00:41:52.651Z,5.6
2017-03-07T00:42:55.608Z,5.5
2017-03-07T00:43:58.309Z,5.5
2017-03-07T00:45:00.781Z,5.5
2017-03-07T00:46:03.230Z,5.5
2017-03-07T00:48:09.116Z,5.5
2017-03-07T00:49:12.367Z,5.5
2017-03-07T00:50:13.817Z,5.5
2017-03-07T00:51:16.264Z,5.5
2017-03-07T00:52:18.710Z,5.5
2017-03-07T00:53:21.161Z,5.4
2017-03-07T00:54:24.201Z,5.5
2017-03-07T00:55:26.650Z,5.3
2017-03-07T00:56:29.099Z,5.3
2017-03-07T00:57:31.551Z,5.3
2017-03-07T00:58:34.529Z,5.3
2017-03-07T00:59:37.308Z,5.3
2017-03-07T01:00:39.107Z,5.3
2017-03-07T01:01:41.896Z,5.4
2017-03-07T01:02:45.384Z,5.3
2017-03-07T01:03:47.341Z,5.4
2017-03-07T01:04:50.104Z,5.4
2017-03-07T01:05:52.563Z,5.4
2017-03-07T01:06:55.014Z,5.3
2017-03-07T01:07:57.468Z,5.2
2017-03-07T01:08:59.787Z,5.1
2017-03-07T01:10:02.990Z,5.3
2017-03-07T01:11:05.447Z,5.3
2017-03-07T01:12:07.725Z,5.3
2017-03-07T01:13:10.509Z,5.3
2017-03-07T01:14:12.983Z,5.2
2017-03-07T01:15:15.696Z,5.2
2017-03-07T01:16:18.168Z,5.3
2017-03-07T01:17:20.472Z,5.1
2017-03-07T01:18:23.434Z,5.2
2017-03-07T01:19:25.898Z,5.2
2017-03-07T01:20:28.612Z,5.3
2017-03-07T01:21:31.090Z,5.3
2017-03-07T01:22:33.547Z,5.3
2017-03-07T01:23:36.502Z,5.2
2017-03-07T01:24:38.961Z,5.2
2017-03-07T01:25:41.673Z,5.3
2017-03-07T01:26:44.124Z,5.3
2017-03-07T01:27:46.573Z,5.3
2017-03-07T01:28:49.037Z,5.2
2017-03-07T01:29:51.990Z,5.3
2017-03-07T01:30:54.730Z,5.3
2017-03-07T01:31:57.177Z,5.3
2017-03-07T01:33:00.166Z,5.3
2017-03-07T01:35:04.527Z,5.2
2017-03-07T01:36:07.740Z,5.1
2017-03-07T01:37:09.707Z,5.2
2017-03-07T01:38:13.198Z,5.3
2017-03-07T01:39:15.149Z,5.1
2017-03-07T01:40:17.598Z,5.2
2017-03-07T01:41:20.358Z,5.2
2017-03-07T01:42:22.647Z,5.2
2017-03-07T01:43:25.461Z,5.3
2017-03-07T01:44:27.907Z,5.3
2017-03-07T01:45:30.378Z,5.3
2017-03-07T01:46:33.632Z,5.3
2017-03-07T01:47:36.126Z,5.3
2017-03-07T01:48:38.405Z,5.1
2017-03-07T01:49:40.863Z,5.2
2017-03-07T01:50:43.488Z,5.3
2017-03-07T01:51:46.735Z,5.3
2017-03-07T01:52:48.690Z,5.1
2017-03-07T01:53:51.474Z,5.3
2017-03-07T01:54:53.934Z,5.3
2017-03-07T01:55:56.407Z,5.3
2017-03-07T01:56:59.635Z,5.3
2017-03-07T01:58:02.132Z,5.4
2017-03-07T01:59:04.089Z,5.3
2017-03-07T02:00:06.540Z,5.4
2017-03-07T02:01:09.497Z,5.4
2017-03-07T02:02:12.198Z,5.3
2017-03-07T02:03:14.661Z,5.4
2017-03-07T02:04:17.119Z,5.5
2017-03-07T02:05:19.564Z,5.4
2017-03-07T02:06:21.858Z,5.4
2017-03-07T02:08:27.529Z,5.4
2017-03-07T02:09:30.010Z,5.4
2017-03-07T02:10:32.641Z,5.3
2017-03-07T02:11:35.101Z,5.4
2017-03-07T02:12:37.550Z,5.5
2017-03-07T02:13:40.760Z,5.4
2017-03-07T02:14:42.723Z,5.4
2017-03-07T02:15:45.673Z,5.4
2017-03-07T02:16:48.121Z,5.4
2017-03-07T02:17:50.576Z,5.5
2017-03-07T02:18:53.273Z,5.5
2017-03-07T02:19:55.717Z,5.4
2017-03-07T02:20:58.013Z,5.4
2017-03-07T02:22:00.968Z,5.5
2017-03-07T02:23:03.424Z,5.4
2017-03-07T02:24:06.683Z,5.4
2017-03-07T02:25:08.646Z,5.4
2017-03-07T02:26:11.103Z,5.3
2017-03-07T02:27:14.094Z,5.4
2017-03-07T02:28:16.541Z,5.3
2017-03-07T02:29:19.245Z,5.3
2017-03-07T02:30:21.706Z,5.3
2017-03-07T02:31:23.988Z,5.3
2017-03-07T02:32:26.769Z,5.1
2017-03-07T02:33:29.555Z,5
2017-03-07T02:34:32.256Z,5
2017-03-07T02:35:34.711Z,5
2017-03-07T02:36:36.998Z,5
2017-03-07T02:37:40.004Z,5
2017-03-07T02:38:42.449Z,5
2017-03-07T02:39:45.216Z,5
2017-03-07T02:41:50.087Z,4.9
2017-03-07T02:42:52.541Z,4.8
2017-03-07T02:43:55.550Z,4.8
2017-03-07T02:44:58.129Z,4.8
2017-03-07T02:47:04.055Z,4.8
2017-03-07T02:48:05.529Z,4.8
2017-03-07T02:49:07.991Z,4.8
2017-03-07T02:50:11.189Z,4.9
2017-03-07T02:51:13.142Z,5
2017-03-07T02:52:16.124Z,5
2017-03-07T02:53:18.585Z,5
2017-03-07T02:54:21.037Z,4.9
2017-03-07T02:55:23.741Z,5
2017-03-07T02:56:26.185Z,5
2017-03-07T02:57:28.635Z,4.8
2017-03-07T02:58:31.083Z,4.8
2017-03-07T02:59:34.036Z,4.8
2017-03-07T03:00:36.734Z,4.8
2017-03-07T03:01:39.215Z,4.8
2017-03-07T03:02:41.673Z,4.8
2017-03-07T03:03:44.134Z,4.8
2017-03-07T03:04:46.582Z,4.8
2017-03-07T03:05:49.805Z,4.8
2017-03-07T03:06:51.754Z,4.7
2017-03-07T03:07:54.704Z,4.7
2017-03-07T03:08:57.172Z,4.6
2017-03-07T03:09:59.619Z,4.6
2017-03-07T03:11:02.364Z,4.6
2017-03-07T03:12:05.368Z,4.6
2017-03-07T03:13:07.312Z,4.7
2017-03-07T03:14:09.761Z,4.7
2017-03-07T03:15:12.715Z,4.7
2017-03-07T03:16:15.470Z,4.8
2017-03-07T03:17:17.777Z,4.7
2017-03-07T03:18:20.222Z,4.6
2017-03-07T03:19:22.698Z,4.6
2017-03-07T03:20:25.362Z,4.6
2017-03-07T03:21:28.648Z,4.6
2017-03-07T03:23:33.532Z,4.6
2017-03-07T03:24:35.480Z,4.5
2017-03-07T03:25:38.274Z,4.5
2017-03-07T03:26:40.996Z,4.5
2017-03-07T03:27:43.467Z,4.5
2017-03-07T03:28:45.916Z,4.5
2017-03-07T03:29:48.380Z,4.5
2017-03-07T03:30:51.340Z,4.5
2017-03-07T03:31:54.044Z,4.4
2017-03-07T03:32:57.025Z,4.5
2017-03-07T03:33:58.973Z,4.4
2017-03-07T03:35:01.457Z,4.4
2017-03-07T03:36:03.911Z,4.4
2017-03-07T03:37:06.630Z,4.5
2017-03-07T03:38:09.081Z,4.5
2017-03-07T03:39:11.530Z,4.5
2017-03-07T03:40:14.485Z,4.6
2017-03-07T03:41:16.770Z,4.6
2017-03-07T03:42:19.547Z,4.6
2017-03-07T03:43:21.996Z,4.6
2017-03-07T03:44:24.452Z,4.6
2017-03-07T03:45:26.925Z,4.6
2017-03-07T03:46:29.732Z,4.5
2017-03-07T03:47:32.504Z,4.6
2017-03-07T03:48:34.959Z,4.5
2017-03-07T03:49:37.239Z,4.5
2017-03-07T03:50:40.209Z,4.5
2017-03-07T03:51:42.668Z,4.5
2017-03-07T03:52:45.440Z,4.5
2017-03-07T03:53:47.912Z,4.5
2017-03-07T03:54:50.368Z,4.5
2017-03-07T03:55:52.836Z,4.4
2017-03-07T03:56:55.815Z,4.5
2017-03-07T03:57:58.026Z,4.5
2017-03-07T03:59:00.489Z,4.4
2017-03-07T04:00:02.966Z,4.5
2017-03-07T04:02:08.327Z,4.4
2017-03-07T04:03:11.088Z,4.3
2017-03-07T04:04:14.071Z,4.2
2017-03-07T04:05:16.040Z,4.1
2017-03-07T04:06:18.500Z,4.1
2017-03-07T04:07:20.962Z,4.1
2017-03-07T04:08:23.672Z,4.2
2017-03-07T04:09:26.130Z,4.1
2017-03-07T04:10:28.584Z,4.1
2017-03-07T04:11:31.550Z,4.1
2017-03-07T04:12:33.998Z,4.1
2017-03-07T04:13:36.708Z,4.1
2017-03-07T04:14:39.159Z,4
2017-03-07T04:15:41.459Z,4
2017-03-07T04:16:43.915Z,3.9
2017-03-07T04:17:46.883Z,4
2017-03-07T04:18:49.598Z,4
2017-03-07T04:19:52.049Z,4.1
2017-03-07T04:20:55.030Z,4.1
2017-03-07T04:21:56.975Z,4.1
2017-03-07T04:22:59.778Z,4
2017-03-07T04:24:02.319Z,4
2017-03-07T04:25:05.299Z,4.1
2017-03-07T04:26:07.252Z,4.1
2017-03-07T04:27:09.716Z,4.1
2017-03-07T04:28:12.165Z,4.1
2017-03-07T04:29:15.397Z,4
2017-03-07T04:30:17.359Z,4
2017-03-07T04:31:20.146Z,4
2017-03-07T04:32:22.597Z,4.1
2017-03-07T04:33:25.054Z,4
2017-03-07T04:34:28.321Z,3.9
2017-03-07T04:35:30.271Z,4
2017-03-07T04:36:32.719Z,4.1
2017-03-07T04:37:35.550Z,4.1
2017-03-07T04:38:37.828Z,4.1
2017-03-07T04:40:43.473Z,3.8
2017-03-07T04:41:45.978Z,3.8
2017-03-07T04:42:48.427Z,3.8
2017-03-07T04:43:50.711Z,3.8
2017-03-07T04:44:53.669Z,4
2017-03-07T04:45:56.401Z,3.8
2017-03-07T04:46:58.347Z,3.8
2017-03-07T04:48:01.334Z,3.8
2017-03-07T04:49:03.785Z,3.8
2017-03-07T04:50:06.239Z,3.8
2017-03-07T04:51:09.467Z,3.7
2017-03-07T04:52:11.426Z,3.8
2017-03-07T04:53:13.902Z,3.8
2017-03-07T04:54:16.355Z,3.7
2017-03-07T04:55:19.323Z,3.8
2017-03-07T04:56:22.027Z,3.6
2017-03-07T04:57:23.988Z,3.6
2017-03-07T04:58:26.944Z,3.7
2017-03-07T04:59:29.416Z,3.6
2017-03-07T05:00:31.898Z,3.7
2017-03-07T05:01:34.612Z,3.6
2017-03-07T05:02:37.076Z,3.7
2017-03-07T05:03:39.528Z,3.8
2017-03-07T05:04:41.814Z,3.7
2017-03-07T05:05:44.768Z,3.7
2017-03-07T05:06:47.524Z,3.7
2017-03-07T05:08:52.933Z,3.6
2017-03-07T05:09:54.881Z,3.6
2017-03-07T05:10:57.378Z,3.6
2017-03-07T05:12:00.619Z,3.6
2017-03-07T05:13:02.579Z,3.6
2017-03-07T05:14:05.036Z,3.5
2017-03-07T05:15:07.328Z,3.5
2017-03-07T05:16:10.303Z,3.5
2017-03-07T05:17:13.018Z,3.5
2017-03-07T05:18:15.319Z,3.5
2017-03-07T05:19:18.079Z,3.5
2017-03-07T05:20:20.534Z,3.5
2017-03-07T05:21:23.001Z,3.5
2017-03-07T05:22:26.572Z,3.5
2017-03-07T05:23:28.022Z,3.5
2017-03-07T05:24:30.818Z,3.5
2017-03-07T05:25:33.800Z,3.5
2017-03-07T05:26:35.588Z,3.5
2017-03-07T05:27:38.793Z,3.5
2017-03-07T05:28:41.792Z,3.5
2017-03-07T05:29:43.750Z,3.5
2017-03-07T05:30:46.204Z,3.4
2017-03-07T05:31:16.446Z,3.4
2017-03-07T05:31:48.536Z,3.3
2017-03-07T05:32:51.264Z,3.4
2017-03-07T05:33:53.699Z,3.3
2017-03-07T05:34:56.145Z,3.3
2017-03-07T05:35:59.112Z,3.3
2017-03-07T05:37:01.587Z,3.3
2017-03-07T05:38:04.293Z,3.3
2017-03-07T05:39:06.784Z,3.2
2017-03-07T05:40:09.243Z,3.2
2017-03-07T05:41:11.701Z,3.3
2017-03-07T05:42:14.155Z,3.3
2017-03-07T05:43:16.928Z,3.2
2017-03-07T05:44:19.393Z,3.1
2017-03-07T05:46:24.247Z,3.2
2017-03-07T05:47:27.035Z,3.3
2017-03-07T05:48:29.803Z,3.2
2017-03-07T05:49:32.784Z,3.1
2017-03-07T05:50:34.568Z,3.2
2017-03-07T05:51:37.019Z,3.1
2017-03-07T05:52:39.974Z,3.1
2017-03-07T05:54:44.914Z,3.1
2017-03-07T05:55:47.383Z,3.1
2017-03-07T05:56:49.835Z,3.1
2017-03-07T05:57:53.155Z,3.2
2017-03-07T05:58:55.103Z,3.1
2017-03-07T05:59:58.332Z,3.1
2017-03-07T06:01:00.313Z,3.1
2017-03-07T06:02:02.767Z,3.1
2017-03-07T06:03:05.222Z,3.1
2017-03-07T06:04:07.679Z,3
2017-03-07T06:05:10.888Z,3
2017-03-07T06:06:13.697Z,3
2017-03-07T06:07:15.646Z,3
2017-03-07T06:08:18.099Z,3
2017-03-07T06:09:20.550Z,3
2017-03-07T06:10:23.303Z,3
2017-03-07T06:11:25.753Z,3
2017-03-07T06:12:28.207Z,2.9
2017-03-07T06:13:30.669Z,3
2017-03-07T06:14:33.635Z,3
2017-03-07T06:15:36.399Z,2.8
2017-03-07T06:16:06.641Z,2.8
2017-03-07T06:16:38.410Z,2.9
2017-03-07T06:17:40.857Z,2.9
2017-03-07T06:18:43.838Z,2.9
2017-03-07T06:19:46.298Z,2.9
2017-03-07T06:20:49.058Z,2.9
2017-03-07T06:22:53.929Z,2.9
2017-03-07T06:23:56.401Z,2.7
2017-03-07T06:24:58.866Z,2.6
2017-03-07T06:27:04.493Z,2.8
2017-03-07T06:29:08.857Z,2.8
2017-03-07T06:32:16.997Z,2.9
2017-03-07T06:33:19.125Z,3
2017-03-07T06:35:24.488Z,2.8
2017-03-07T06:37:29.663Z,2.6
2017-03-07T06:38:32.130Z,2.7
2017-03-07T06:39:34.593Z,2.6
2017-03-07T06:40:37.064Z,2.7
2017-03-07T06:41:39.371Z,2.7
2017-03-07T06:42:42.476Z,2.8
2017-03-07T06:43:44.960Z,2.7
2017-03-07T06:45:49.826Z,2.6
2017-03-07T06:47:55.009Z,2.8
2017-03-07T06:48:57.988Z,2.5
2017-03-07T06:49:59.937Z,2.6
2017-03-07T06:51:02.391Z,2.7
2017-03-07T06:52:04.850Z,2.6
2017-03-07T06:56:15.801Z,2.5
2017-03-07T06:56:45.552Z,2.5
2017-03-07T06:57:17.646Z,2.5
2017-03-07T06:57:48.410Z,2.5
2017-03-07T06:58:20.182Z,2.5
2017-03-07T06:59:23.132Z,2.6
2017-03-07T07:00:25.590Z,2.8
2017-03-07T07:02:30.701Z,2.5
2017-03-07T07:04:35.556Z,2.5
2017-03-07T07:05:38.017Z,2.6
2017-03-07T07:08:46.035Z,2.6
2017-03-07T07:10:50.892Z,2.6
2017-03-07T07:11:53.349Z,2.6
2017-03-07T07:13:59.016Z,2.5
2017-03-07T07:16:03.390Z,2.4
2017-03-07T07:21:16.738Z,2.6
2017-03-07T07:23:21.599Z,2.5
2017-03-07T07:30:39.088Z,2.3
2017-03-07T07:31:42.067Z,2.3
2017-03-07T07:34:49.365Z,2.5
2017-03-07T07:35:52.073Z,2.3
2017-03-07T07:36:55.580Z,2.3
2017-03-07T07:37:57.027Z,2.5
2017-03-07T07:38:59.485Z,2.5
2017-03-07T07:40:01.964Z,2.6
2017-03-07T07:41:04.721Z,2.5
2017-03-07T07:42:07.189Z,2.5
2017-03-07T07:43:09.639Z,2.5
2017-03-07T07:44:11.944Z,2.6
2017-03-07T07:46:17.615Z,2.6
2017-03-07T07:47:19.407Z,2.5
2017-03-07T07:48:22.363Z,2.6
2017-03-07T07:49:24.818Z,2.5
2017-03-07T07:51:30.439Z,2.6
2017-03-07T07:52:32.226Z,2.6
2017-03-07T07:53:35.012Z,2.5
2017-03-07T07:54:37.296Z,2.6
2017-03-07T07:55:40.250Z,2.7
2017-03-07T07:56:43.022Z,2.6
2017-03-07T07:57:45.311Z,2.6
2017-03-07T07:58:47.602Z,2.6
2017-03-07T07:59:50.050Z,2.7
2017-03-07T08:00:53.557Z,2.6
2017-03-07T08:01:55.761Z,2.8
2017-03-07T08:02:57.732Z,2.8
2017-03-07T08:04:00.683Z,2.7
2017-03-07T08:05:02.990Z,2.6
2017-03-07T08:07:08.097Z,2.5
2017-03-07T08:08:10.556Z,2.5
2017-03-07T08:09:13.011Z,2.7
2017-03-07T08:10:15.459Z,2.8
2017-03-07T08:11:18.415Z,2.8
2017-03-07T08:12:21.119Z,2.6
2017-03-07T08:13:23.090Z,2.6
2017-03-07T08:16:30.871Z,2.5
2017-03-07T08:17:33.621Z,2.4
2017-03-07T08:18:36.075Z,2.5
2017-03-07T08:19:38.365Z,2.5
2017-03-07T08:20:41.853Z,2.5
2017-03-07T08:21:43.820Z,2.6
2017-03-07T08:22:46.574Z,2.6
2017-03-07T08:23:48.354Z,2.6
2017-03-07T08:24:51.327Z,2.6
2017-03-07T08:25:53.787Z,2.6
2017-03-07T08:26:56.085Z,2.7
2017-03-07T08:27:59.175Z,2.8
2017-03-07T08:29:01.482Z,2.8
2017-03-07T08:30:03.775Z,2.7
2017-03-07T08:31:06.730Z,2.7
2017-03-07T08:32:09.018Z,2.6
2017-03-07T08:33:11.765Z,2.6
2017-03-07T08:34:14.223Z,2.6
2017-03-07T08:35:16.681Z,2.6
2017-03-07T08:36:19.660Z,2.6
2017-03-07T08:37:21.612Z,2.7
2017-03-07T08:38:24.316Z,2.8
2017-03-07T08:39:26.779Z,2.8
2017-03-07T08:40:29.230Z,2.7
2017-03-07T08:41:31.526Z,2.6
2017-03-07T08:42:34.478Z,2.6
2017-03-07T08:43:37.193Z,2.6
2017-03-07T08:44:39.652Z,2.6
2017-03-07T08:46:44.342Z,2.6
2017-03-07T08:47:47.295Z,2.8
2017-03-07T08:48:50.025Z,2.8
2017-03-07T08:49:52.307Z,2.8
2017-03-07T08:50:54.764Z,2.8
2017-03-07T08:51:57.220Z,2.6
2017-03-07T08:52:59.676Z,2.7
2017-03-07T08:54:02.881Z,2.7
2017-03-07T08:55:04.848Z,2.7
2017-03-07T08:56:07.145Z,2.7
2017-03-07T08:57:10.115Z,2.7
2017-03-07T08:58:12.414Z,2.7
2017-03-07T08:59:16.162Z,2.7
2017-03-07T09:00:17.610Z,2.8
2017-03-07T09:01:20.065Z,2.8
2017-03-07T09:02:22.520Z,2.8
2017-03-07T09:03:25.485Z,2.8
2017-03-07T09:04:28.241Z,3
2017-03-07T09:05:30.188Z,2.9
2017-03-07T09:06:33.154Z,2.9
2017-03-07T09:07:35.434Z,2.9
2017-03-07T09:08:38.429Z,3
2017-03-07T09:09:40.659Z,2.9
2017-03-07T09:10:43.122Z,3
2017-03-07T09:11:45.592Z,3
2017-03-07T09:12:47.886Z,3
2017-03-07T09:13:50.855Z,3
2017-03-07T09:14:53.628Z,3
2017-03-07T09:15:55.597Z,3
2017-03-07T09:16:58.555Z,3
2017-03-07T09:18:01.013Z,3.1
2017-03-07T09:19:03.466Z,3.1
2017-03-07T09:20:06.005Z,3.1
2017-03-07T09:21:08.458Z,3.1
2017-03-07T09:22:10.920Z,3.1
2017-03-07T09:23:13.879Z,3.1
2017-03-07T09:24:16.227Z,3
2017-03-07T09:25:18.978Z,3
2017-03-07T09:26:21.441Z,2.9
2017-03-07T09:27:23.894Z,2.8
2017-03-07T09:28:26.346Z,2.9
2017-03-07T09:29:28.803Z,3
2017-03-07T09:30:31.507Z,3.1
2017-03-07T09:31:33.977Z,3.1
2017-03-07T09:32:36.428Z,3.1
2017-03-07T09:33:38.880Z,3
2017-03-07T09:34:41.835Z,2.8
2017-03-07T09:35:44.537Z,2.8
2017-03-07T09:36:46.322Z,2.9
2017-03-07T09:37:48.954Z,2.9
2017-03-07T09:38:51.911Z,3
2017-03-07T09:39:54.906Z,2.9
2017-03-07T09:40:57.107Z,2.9
2017-03-07T09:41:59.567Z,3
2017-03-07T09:44:04.428Z,2.9
2017-03-07T09:45:07.074Z,3
2017-03-07T09:46:09.775Z,3
2017-03-07T09:47:12.233Z,3
2017-03-07T09:48:14.681Z,3.1
2017-03-07T09:49:17.147Z,3
2017-03-07T09:50:19.599Z,3
2017-03-07T09:51:22.860Z,3
2017-03-07T09:52:24.812Z,3
2017-03-07T09:53:27.272Z,2.9
2017-03-07T09:54:29.729Z,2.8
2017-03-07T09:55:32.698Z,2.8
2017-03-07T09:56:35.288Z,2.8
2017-03-07T09:57:37.779Z,2.8
2017-03-07T09:58:40.234Z,2.9
2017-03-07T09:59:42.689Z,2.9
2017-03-07T10:00:45.140Z,3
2017-03-07T10:01:47.845Z,3
2017-03-07T10:02:50.293Z,3.1
2017-03-07T10:03:52.748Z,3
2017-03-07T10:04:55.199Z,3.1
2017-03-07T10:05:58.692Z,3.2
2017-03-07T10:07:00.890Z,3.2
2017-03-07T10:08:02.845Z,3.3
2017-03-07T10:09:05.815Z,3.2
2017-03-07T10:10:08.267Z,3.1
2017-03-07T10:11:10.748Z,3.1
2017-03-07T10:12:13.989Z,3.1
2017-03-07T10:13:15.945Z,3.3
2017-03-07T10:14:18.416Z,3.4
2017-03-07T10:15:20.709Z,3.1
2017-03-07T10:16:23.162Z,3.1
2017-03-07T10:17:26.427Z,3.2
2017-03-07T10:18:28.903Z,3.2
2017-03-07T10:19:30.883Z,3.2
2017-03-07T10:20:33.849Z,3
2017-03-07T10:21:36.304Z,3
2017-03-07T10:22:39.020Z,3
2017-03-07T10:23:40.991Z,2.8
2017-03-07T10:24:43.961Z,2.9
2017-03-07T10:25:46.411Z,2.9
2017-03-07T10:26:48.695Z,2.9
2017-03-07T10:27:51.411Z,3.1
2017-03-07T10:28:53.865Z,3.2
2017-03-07T10:29:56.852Z,3.2
2017-03-07T10:30:58.815Z,3.2
2017-03-07T10:32:01.792Z,3.1
2017-03-07T10:33:04.518Z,3
2017-03-07T10:34:06.475Z,3.1
2017-03-07T10:35:09.440Z,3.1
2017-03-07T10:36:11.894Z,3.2
2017-03-07T10:37:14.372Z,3.2
2017-03-07T10:38:16.912Z,3.1
2017-03-07T10:39:19.382Z,3.2
2017-03-07T10:40:21.868Z,3.2
2017-03-07T10:41:24.340Z,3.3
2017-03-07T10:42:27.334Z,3.3
2017-03-07T10:43:30.085Z,3.3
2017-03-07T10:44:32.033Z,3.3
2017-03-07T10:45:34.500Z,3.2
2017-03-07T10:46:36.952Z,3.1
2017-03-07T10:47:39.908Z,3.1
2017-03-07T10:48:42.615Z,3.1
2017-03-07T10:49:44.561Z,3.1
2017-03-07T10:50:47.529Z,3.1
2017-03-07T10:51:49.985Z,3.1
2017-03-07T10:53:55.620Z,3.1
2017-03-07T10:54:57.567Z,3.1
2017-03-07T10:56:00.019Z,3.2
2017-03-07T10:57:02.822Z,3.3
2017-03-07T10:58:05.279Z,3.3
2017-03-07T10:59:08.033Z,3.1
2017-03-07T11:00:10.481Z,3
2017-03-07T11:01:12.929Z,3
2017-03-07T11:02:15.401Z,2.9
2017-03-07T11:03:17.853Z,2.8
2017-03-07T11:04:20.591Z,2.9
2017-03-07T11:05:23.046Z,2.9
2017-03-07T11:06:25.503Z,3
2017-03-07T11:08:30.361Z,3
2017-03-07T11:09:33.621Z,3.1
2017-03-07T11:10:35.572Z,3.1
2017-03-07T11:11:38.034Z,3.1
2017-03-07T11:12:41.002Z,3.1
2017-03-07T11:13:43.818Z,3.4
2017-03-07T11:14:46.356Z,3.4
2017-03-07T11:15:48.309Z,3.5
2017-03-07T11:16:50.777Z,3.4
2017-03-07T11:17:53.729Z,3.5
2017-03-07T11:18:56.196Z,3.3
2017-03-07T11:19:58.904Z,3.3
2017-03-07T11:21:01.374Z,3.3
2017-03-07T11:22:03.498Z,3.3
2017-03-07T11:23:06.456Z,3.3
2017-03-07T11:24:08.916Z,3.4
2017-03-07T11:25:11.678Z,3.5
2017-03-07T11:26:13.628Z,3.5
2017-03-07T11:27:17.111Z,3.3
2017-03-07T11:28:19.085Z,3.3
2017-03-07T11:29:22.385Z,3.4
2017-03-07T11:30:24.112Z,3.3
2017-03-07T11:31:26.237Z,3.3
2017-03-07T11:32:29.194Z,3.2
2017-03-07T11:33:31.646Z,3.2
2017-03-07T11:34:33.940Z,3.3
2017-03-07T11:35:37.187Z,3.3
2017-03-07T11:36:39.144Z,3.2
2017-03-07T11:37:42.099Z,3.1
2017-03-07T11:38:44.385Z,3.1
2017-03-07T11:39:46.838Z,3.1
2017-03-07T11:40:49.426Z,3.2
2017-03-07T11:41:51.881Z,3.3
2017-03-07T11:42:54.841Z,3.4
2017-03-07T11:43:57.303Z,3.5
2017-03-07T11:44:59.772Z,3.6
2017-03-07T11:47:04.890Z,3.6
2017-03-07T11:48:07.348Z,3.8
2017-03-07T11:49:09.636Z,3.9
2017-03-07T11:50:12.593Z,4
2017-03-07T11:51:15.078Z,4
2017-03-07T11:52:17.791Z,4.1
2017-03-07T11:53:20.246Z,4.1
2017-03-07T11:54:22.554Z,4.2
2017-03-07T11:55:24.846Z,4.2
2017-03-07T11:56:27.826Z,4
2017-03-07T11:57:30.589Z,4.1
2017-03-07T11:58:33.042Z,4.1
2017-03-07T11:59:35.496Z,4.1
2017-03-07T12:00:37.780Z,4.2
2017-03-07T12:01:40.596Z,4.3
2017-03-07T12:02:43.185Z,4.3
2017-03-07T12:03:45.650Z,4.3
2017-03-07T12:04:47.962Z,4.3
2017-03-07T12:05:50.913Z,4.2
2017-03-07T12:06:53.363Z,4.3
2017-03-07T12:07:56.117Z,4.3
2017-03-07T12:11:03.380Z,4.2
2017-03-07T12:12:05.853Z,4.2
2017-03-07T12:13:08.573Z,4.1
2017-03-07T12:14:10.888Z,4.1
2017-03-07T12:15:13.841Z,4
2017-03-07T12:16:16.312Z,4
2017-03-07T12:17:18.764Z,3.9
2017-03-07T12:18:21.470Z,3.6
2017-03-07T12:19:23.922Z,3.6
2017-03-07T12:20:26.208Z,3.6
2017-03-07T12:21:29.177Z,3.6
2017-03-07T12:22:31.642Z,3.6
2017-03-07T12:25:39.677Z,3.8
2017-03-07T12:26:42.170Z,3.5
2017-03-07T12:27:43.973Z,3.5
2017-03-07T12:29:50.397Z,3.6
2017-03-07T12:30:51.848Z,3.5
2017-03-07T12:31:54.307Z,3.4
2017-03-07T12:32:56.770Z,3.5
2017-03-07T12:33:59.566Z,3.5
2017-03-07T12:35:02.029Z,3.5
2017-03-07T12:36:04.912Z,3.5
2017-03-07T12:37:07.402Z,3.3
2017-03-07T12:38:09.858Z,3.3
2017-03-07T12:39:12.329Z,3.2
2017-03-07T12:40:14.779Z,3.2
2017-03-07T12:41:17.505Z,3.1
2017-03-07T12:42:19.968Z,3.1
2017-03-07T12:43:22.791Z,3.3
2017-03-07T12:44:25.245Z,3.3
2017-03-07T12:46:30.712Z,3.2
2017-03-07T12:47:32.500Z,3.2
2017-03-07T12:48:35.469Z,3.3
2017-03-07T12:49:37.626Z,3.3
2017-03-07T12:50:41.125Z,3.5
2017-03-07T12:51:43.403Z,3.5
2017-03-07T12:52:45.880Z,3.3
2017-03-07T12:53:47.829Z,3.3
2017-03-07T12:54:50.286Z,3.2
2017-03-07T12:55:53.076Z,3.2
2017-03-07T12:56:55.779Z,3.3
2017-03-07T12:57:58.244Z,3.1
2017-03-07T12:59:00.699Z,3.2
2017-03-07T13:00:03.182Z,3.3
2017-03-07T13:01:05.969Z,3.5
2017-03-07T13:02:08.724Z,3.6
2017-03-07T13:03:10.517Z,3.7
2017-03-07T13:04:13.494Z,3.8
2017-03-07T13:05:15.953Z,3.9
2017-03-07T13:06:18.415Z,4
2017-03-07T13:07:21.133Z,4
2017-03-07T13:08:23.585Z,3.9
2017-03-07T13:09:26.040Z,3.8
2017-03-07T13:10:28.668Z,3.8
2017-03-07T13:12:34.106Z,4
2017-03-07T13:13:36.610Z,4
2017-03-07T13:14:38.982Z,4.1
2017-03-07T13:15:41.521Z,4
2017-03-07T13:16:44.033Z,4.1
2017-03-07T13:17:46.809Z,4
2017-03-07T13:18:49.282Z,3.8
2017-03-07T13:19:51.775Z,3.7
2017-03-07T13:20:54.241Z,3.7
2017-03-07T13:21:57.220Z,3.6
2017-03-07T13:22:59.425Z,3.6
2017-03-07T13:24:02.432Z,3.6
2017-03-07T13:25:04.217Z,3.6
2017-03-07T13:26:07.005Z,3.6
2017-03-07T13:27:09.460Z,3.6
2017-03-07T13:28:12.162Z,3.5
2017-03-07T13:29:14.624Z,3.5
2017-03-07T13:30:16.929Z,3.6
2017-03-07T13:31:19.744Z,3.6
2017-03-07T13:32:22.034Z,3.6
2017-03-07T13:33:25.301Z,3.7
2017-03-07T13:34:27.252Z,3.8
2017-03-07T13:35:30.219Z,3.8
2017-03-07T13:36:32.673Z,3.8
2017-03-07T13:37:35.143Z,3.9
2017-03-07T13:38:37.902Z,4
2017-03-07T13:39:40.370Z,4.2
2017-03-07T13:40:42.824Z,4.1
2017-03-07T13:41:45.293Z,4.3
2017-03-07T13:42:47.578Z,4.5
2017-03-07T13:43:50.695Z,4.6
2017-03-07T13:44:53.165Z,4.5
2017-03-07T13:45:55.642Z,4.5
2017-03-07T13:46:57.935Z,4.6
2017-03-07T13:48:00.400Z,4.4
2017-03-07T13:49:03.660Z,4.5
2017-03-07T13:50:05.634Z,4.3
2017-03-07T13:51:08.609Z,4.2
2017-03-07T13:52:10.571Z,4.2
2017-03-07T13:53:14.064Z,4.2
2017-03-07T13:54:16.264Z,4
2017-03-07T13:55:18.743Z,3.8
2017-03-07T13:56:21.193Z,3.8
2017-03-07T13:57:24.178Z,3.6
2017-03-07T13:58:26.134Z,3.4
2017-03-07T13:59:28.840Z,3.4
2017-03-07T14:00:31.303Z,3.5
2017-03-07T14:02:36.163Z,3.5
2017-03-07T14:03:38.951Z,3.5
2017-03-07T14:04:41.656Z,3.5
2017-03-07T14:05:44.126Z,3.6
2017-03-07T14:06:46.603Z,3.6
2017-03-07T14:07:48.891Z,3.5
2017-03-07T14:08:51.859Z,3.3
2017-03-07T14:09:54.620Z,3.1
2017-03-07T14:10:56.583Z,3.1
2017-03-07T14:11:59.561Z,3.1
2017-03-07T14:13:01.881Z,3.2
2017-03-07T14:14:04.361Z,3.1
2017-03-07T14:15:07.064Z,3.2
2017-03-07T14:16:09.361Z,3.3
2017-03-07T14:17:12.314Z,3.3
2017-03-07T14:18:14.782Z,3.5
2017-03-07T14:19:17.235Z,3.5
2017-03-07T14:20:19.777Z,3.5
2017-03-07T14:21:22.228Z,3.5
2017-03-07T14:22:24.679Z,3.5
2017-03-07T14:23:27.649Z,3.5
2017-03-07T14:24:29.954Z,3.6
2017-03-07T14:25:32.330Z,3.5
2017-03-07T14:26:34.796Z,3.4
2017-03-07T14:27:37.756Z,3.3
2017-03-07T14:28:40.028Z,3.3
2017-03-07T14:29:42.479Z,3.3
2017-03-07T14:30:45.717Z,3.3
2017-03-07T14:31:47.680Z,3.3
2017-03-07T14:33:53.040Z,3.3
2017-03-07T14:34:55.332Z,3.3
2017-03-07T14:35:58.565Z,3.3
2017-03-07T14:37:00.539Z,3.3
2017-03-07T14:38:03.001Z,3.3
2017-03-07T14:39:05.461Z,3.3
2017-03-07T14:40:08.960Z,3.3
2017-03-07T14:41:10.993Z,3.4
2017-03-07T14:42:13.295Z,3.3
2017-03-07T14:43:15.769Z,3.4
2017-03-07T14:44:18.218Z,3.4
2017-03-07T14:45:21.179Z,3.4
2017-03-07T14:46:23.888Z,3.3
2017-03-07T14:47:25.839Z,3.4
2017-03-07T14:48:28.630Z,3.4
2017-03-07T14:49:30.929Z,3.4
2017-03-07T14:50:33.933Z,3.4
2017-03-07T14:51:36.633Z,3.5
2017-03-07T14:52:38.579Z,3.5
2017-03-07T14:53:41.368Z,3.5
2017-03-07T14:54:43.822Z,3.5
2017-03-07T14:55:46.275Z,3.4
2017-03-07T14:56:48.984Z,3.5
2017-03-07T14:57:51.439Z,3.5
2017-03-07T14:58:53.738Z,3.5
2017-03-07T14:59:56.362Z,3.5
2017-03-07T15:00:59.326Z,3.5
2017-03-07T15:02:02.085Z,3.5
2017-03-07T15:03:03.881Z,3.4
2017-03-07T15:04:06.686Z,3.5
2017-03-07T15:05:09.163Z,3.5
2017-03-07T15:06:12.133Z,3.5
2017-03-07T15:07:14.842Z,3.5
2017-03-07T15:08:16.794Z,3.7
2017-03-07T15:09:19.578Z,3.7
2017-03-07T15:10:22.037Z,3.8
2017-03-07T15:11:24.493Z,3.9
2017-03-07T15:12:27.707Z,3.7
2017-03-07T15:13:29.544Z,3.8
2017-03-07T15:14:32.330Z,3.8
2017-03-07T15:15:35.165Z,4
2017-03-07T15:16:37.627Z,3.8
2017-03-07T15:17:40.381Z,3.7
2017-03-07T15:18:42.359Z,3.6
2017-03-07T15:38:31.192Z,3.8
2017-03-07T15:39:33.479Z,3.8
2017-03-07T15:40:35.779Z,3.8
2017-03-07T15:46:51.581Z,3.7
2017-03-07T15:47:54.036Z,3.7
2017-03-07T15:48:56.496Z,3.6
2017-03-07T15:49:58.947Z,3.5
2017-03-07T15:50:29.196Z,3.5